createdAt,value
2023-04-18T00:00:21.755Z,10.37
2023-04-18T00:03:24.130Z,10.41
2023-04-18T00:06:26.756Z,10.48
2023-04-18T00:09:28.647Z,10.29
2023-04-18T00:12:41.096Z,10.21
2023-04-18T00:15:44.805Z,10.19
2023-04-18T00:18:48.167Z,10.11
2023-04-18T00:21:50.062Z,10.01
2023-04-18T00:24:52.569Z,10.01
2023-04-18T00:27:54.514Z,9.97
2023-04-18T00:30:56.621Z,10.04
2023-04-18T00:33:58.639Z,10.01
2023-04-18T00:37:00.645Z,9.79
2023-04-18T00:40:02.579Z,9.85
2023-04-18T00:43:04.736Z,9.90
2023-04-18T00:46:07.915Z,9.90
2023-04-18T00:49:11.893Z,9.91
2023-04-18T00:52:14.314Z,9.94
2023-04-18T00:55:16.513Z,9.93
2023-04-18T00:58:18.503Z,9.96
2023-04-18T01:01:20.385Z,10.05
2023-04-18T01:04:22.445Z,10.10
2023-04-18T01:07:26.535Z,10.12
2023-04-18T01:10:31.999Z,10.13
2023-04-18T01:13:33.905Z,10.23
2023-04-18T01:16:38.863Z,10.27
2023-04-18T01:19:40.941Z,10.15
2023-04-18T01:22:42.943Z,10.18
2023-04-18T01:25:46.052Z,10.07
2023-04-18T01:28:48.014Z,10.12
2023-04-18T01:31:50.155Z,10.21
2023-04-18T01:34:52.086Z,10.27
2023-04-18T01:37:54.227Z,10.24
2023-04-18T01:40:56.186Z,10.11
2023-04-18T01:43:59.052Z,10.23
2023-04-18T01:47:01.516Z,10.07
2023-04-18T01:50:04.023Z,10.12
2023-04-18T01:53:06.277Z,10.00
2023-04-18T01:56:08.142Z,10.13
2023-04-18T01:59:10.554Z,10.11
2023-04-18T02:02:13.770Z,10.01
2023-04-18T02:05:16.092Z,10.00
2023-04-18T02:08:18.213Z,10.06
2023-04-18T02:14:52.867Z,10.12
2023-04-18T02:17:55.359Z,10.00
2023-04-18T02:20:58.705Z,10.00
2023-04-18T02:24:00.627Z,10.09
2023-04-18T02:27:02.725Z,10.13
2023-04-18T02:30:04.972Z,10.12
2023-04-18T02:33:09.177Z,10.23
2023-04-18T02:36:12.890Z,10.23
2023-04-18T02:39:15.088Z,10.28
2023-04-18T02:42:17.618Z,10.29
2023-04-18T02:45:19.535Z,10.13
2023-04-18T02:48:23.301Z,10.23
2023-04-18T02:51:26.841Z,10.15
2023-04-18T02:54:29.378Z,10.15
2023-04-18T02:57:39.579Z,10.11
2023-04-18T03:01:00.345Z,10.29
2023-04-18T03:04:25.857Z,10.20
2023-04-18T03:07:34.197Z,10.31
2023-04-18T03:10:36.251Z,10.26
2023-04-18T03:13:39.073Z,10.05
2023-04-18T03:16:41.700Z,10.15
2023-04-18T03:19:47.005Z,10.16
2023-04-18T03:22:50.750Z,10.16
2023-04-18T03:25:57.739Z,10.12
2023-04-18T03:29:02.986Z,10.18
2023-04-18T03:32:05.373Z,10.18
2023-04-18T03:35:07.996Z,10.17
2023-04-18T03:38:09.947Z,10.21
2023-04-18T03:41:14.662Z,10.09
2023-04-18T03:44:17.034Z,10.18
2023-04-18T03:47:19.029Z,10.17
2023-04-18T03:50:25.794Z,10.17
2023-04-18T03:53:29.737Z,10.21
2023-04-18T03:56:31.663Z,10.18
2023-04-18T03:59:34.634Z,10.33
2023-04-18T04:02:36.852Z,10.12
2023-04-18T04:05:38.998Z,10.27
2023-04-18T04:08:41.536Z,10.17
2023-04-18T04:11:43.483Z,10.36
2023-04-18T04:14:48.106Z,10.21
2023-04-18T04:17:51.159Z,10.23
2023-04-18T04:20:54.324Z,10.25
2023-04-18T04:24:25.467Z,10.24
2023-04-18T04:27:28.119Z,10.10
2023-04-18T04:30:31.879Z,10.20
2023-04-18T04:33:34.396Z,10.23
2023-04-18T04:36:41.283Z,10.19
2023-04-18T04:39:44.945Z,10.32
2023-04-18T04:43:01.415Z,10.28
2023-04-18T04:46:09.779Z,10.21
2023-04-18T04:49:12.207Z,10.27
2023-04-18T04:52:14.165Z,10.14
2023-04-18T04:55:17.528Z,10.37
2023-04-18T04:58:20.487Z,10.42
2023-04-18T05:10:14.051Z,10.51
2023-04-18T05:13:16.522Z,10.56
2023-04-18T05:16:18.675Z,10.68
2023-04-18T05:19:20.978Z,10.74
2023-04-18T05:22:23.145Z,10.74
2023-04-18T05:25:25.065Z,10.74
2023-04-18T05:28:27.574Z,10.61
2023-04-18T05:31:29.521Z,10.71
2023-04-18T05:34:31.877Z,10.70
2023-04-18T05:37:33.829Z,10.81
2023-04-18T05:40:35.794Z,10.77
2023-04-18T05:43:37.768Z,10.76
2023-04-18T05:46:39.687Z,10.90
2023-04-18T05:49:42.039Z,10.92
2023-04-18T05:52:44.130Z,10.91
2023-04-18T05:55:48.694Z,11.10
2023-04-18T05:58:51.411Z,10.97
2023-04-18T06:01:53.614Z,11.29
2023-04-18T06:04:56.772Z,11.12
2023-04-18T06:07:58.871Z,11.27
2023-04-18T06:11:00.961Z,11.29
2023-04-18T06:14:03.180Z,11.33
2023-04-18T06:17:07.329Z,11.15
2023-04-18T06:20:10.040Z,11.32
2023-04-18T06:23:12.107Z,11.21
2023-04-18T06:26:14.197Z,11.10
2023-04-18T06:29:18.094Z,11.51
2023-04-18T06:32:19.992Z,11.39
2023-04-18T06:35:21.910Z,11.37
2023-04-18T06:38:24.325Z,11.62
2023-04-18T06:41:26.342Z,11.67
2023-04-18T06:44:28.311Z,11.88
2023-04-18T06:47:31.178Z,11.99
2023-04-18T06:50:33.290Z,12.09
2023-04-18T06:53:35.550Z,12.29
2023-04-18T06:56:37.823Z,12.28
2023-04-18T06:59:41.445Z,12.28
2023-04-18T07:02:43.750Z,12.47
2023-04-18T07:05:46.286Z,12.94
2023-04-18T07:08:48.424Z,13.08
2023-04-18T07:11:52.557Z,13.16
2023-04-18T07:14:55.255Z,13.20
2023-04-18T07:17:57.246Z,13.12
2023-04-18T07:20:59.181Z,12.52
2023-04-18T07:24:02.862Z,12.93
2023-04-18T07:27:05.799Z,13.08
2023-04-18T07:30:08.739Z,13.13
2023-04-18T07:33:11.171Z,13.17
2023-04-18T07:36:13.252Z,13.16
2023-04-18T07:39:15.282Z,13.18
2023-04-18T07:42:17.540Z,13.53
2023-04-18T07:45:19.964Z,13.42
2023-04-18T07:48:25.452Z,13.20
2023-04-18T07:51:31.301Z,13.26
2023-04-18T07:57:50.499Z,13.16
2023-04-18T08:00:52.434Z,13.12
2023-04-18T08:03:56.276Z,13.28
2023-04-18T08:06:58.421Z,13.10
2023-04-18T08:10:00.325Z,13.13
2023-04-18T08:13:02.862Z,13.08
2023-04-18T08:16:05.042Z,13.08
2023-04-18T08:19:07.345Z,13.16
2023-04-18T08:22:10.661Z,13.31
2023-04-18T08:25:32.539Z,13.52
2023-04-18T08:28:54.296Z,13.11
2023-04-18T08:32:16.036Z,13.36
2023-04-18T08:35:37.858Z,13.29
2023-04-18T08:38:59.621Z,13.28
2023-04-18T08:42:22.520Z,13.47
2023-04-18T08:45:45.766Z,13.73
2023-04-18T08:48:50.157Z,13.76
2023-04-18T08:51:53.130Z,13.31
2023-04-18T08:54:55.049Z,13.44
2023-04-18T08:57:57.159Z,13.47
2023-04-18T09:47:36.342Z,14.71
2023-04-18T09:50:40.255Z,15.00
2023-04-18T09:53:50.341Z,15.13
2023-04-18T09:56:55.401Z,15.28
2023-04-18T10:00:24.360Z,14.93
2023-04-18T10:03:34.839Z,14.84
2023-04-18T10:06:39.792Z,15.34
2023-04-18T10:09:45.519Z,14.96
2023-04-18T10:12:50.724Z,14.84
2023-04-18T10:15:52.923Z,15.09
2023-04-18T10:18:55.196Z,15.18
2023-04-18T10:22:02.180Z,15.16
2023-04-18T10:25:04.638Z,15.03
2023-04-18T10:28:08.123Z,15.43
2023-04-18T10:31:10.042Z,15.25
2023-04-18T10:34:17.493Z,15.70
2023-04-18T10:37:19.433Z,15.51
2023-04-18T10:40:34.695Z,15.52
2023-04-18T10:44:15.246Z,15.65
2023-04-18T10:47:19.822Z,15.54
2023-04-18T10:50:23.459Z,16.27
2023-04-18T10:53:25.908Z,16.29
2023-04-18T10:56:29.102Z,16.21
2023-04-18T10:59:32.543Z,16.38
2023-04-18T11:02:35.016Z,16.27
2023-04-18T11:05:36.956Z,15.94
2023-04-18T11:08:39.235Z,16.28
2023-04-18T11:11:42.036Z,16.45
2023-04-18T11:14:46.283Z,17.21
2023-04-18T11:18:04.595Z,17.51
2023-04-18T11:21:06.691Z,17.22
2023-04-18T11:24:08.565Z,17.50
2023-04-18T11:27:12.125Z,17.61
2023-04-18T11:30:15.264Z,16.66
2023-04-18T11:33:17.335Z,17.41
2023-04-18T11:45:00.160Z,16.99
2023-04-18T11:48:02.708Z,17.00
2023-04-18T11:51:06.627Z,16.81
2023-04-18T11:54:41.678Z,16.82
2023-04-18T11:57:56.160Z,17.01
2023-04-18T12:00:58.230Z,16.77
2023-04-18T12:04:01.563Z,17.16
2023-04-18T12:07:03.730Z,17.05
2023-04-18T12:10:26.702Z,17.06
2023-04-18T12:13:32.819Z,17.16
2023-04-18T12:16:35.121Z,17.05
2023-04-18T12:19:37.290Z,16.99
2023-04-18T12:22:40.090Z,17.09
2023-04-18T12:25:42.023Z,17.10
2023-04-18T12:28:51.333Z,17.06
2023-04-18T12:31:53.466Z,16.73
2023-04-18T12:34:55.874Z,16.61
2023-04-18T12:37:59.803Z,16.89
2023-04-18T12:41:01.881Z,17.14
2023-04-18T12:44:04.345Z,17.11
2023-04-18T12:47:06.472Z,17.17
2023-04-18T12:50:11.691Z,17.30
2023-04-18T12:53:13.669Z,17.03
2023-04-18T12:56:15.691Z,17.05
2023-04-18T12:59:18.152Z,17.52
2023-04-18T13:02:20.991Z,17.48
2023-04-18T13:05:29.266Z,17.79
2023-04-18T13:08:34.801Z,17.66
2023-04-18T13:11:36.813Z,17.72
2023-04-18T13:14:39.117Z,17.95
2023-04-18T13:17:41.172Z,17.85
2023-04-18T13:20:44.084Z,18.07
2023-04-18T13:23:45.951Z,18.49
2023-04-18T13:26:47.994Z,18.67
2023-04-18T13:29:50.013Z,18.75
2023-04-18T13:32:52.205Z,18.45
2023-04-18T13:35:54.119Z,18.72
2023-04-18T13:38:56.518Z,18.91
2023-04-18T13:41:59.628Z,18.64
2023-04-18T13:45:01.807Z,18.28
2023-04-18T13:48:04.235Z,18.19
2023-04-18T13:51:06.962Z,18.24
2023-04-18T13:54:09.002Z,18.35
2023-04-18T13:57:14.653Z,18.19
2023-04-18T14:00:17.479Z,18.10
2023-04-18T14:03:19.895Z,17.95
2023-04-18T14:06:21.960Z,18.07
2023-04-18T14:09:23.998Z,17.99
2023-04-18T14:12:26.375Z,17.97
2023-04-18T14:15:28.391Z,17.85
2023-04-18T14:18:30.369Z,18.01
2023-04-18T14:21:32.358Z,17.67
2023-04-18T14:24:36.386Z,17.42
2023-04-18T14:27:38.327Z,17.34
2023-04-18T14:30:40.542Z,17.28
2023-04-18T14:33:42.607Z,17.00
2023-04-18T14:36:44.533Z,16.81
2023-04-18T14:39:46.804Z,16.81
2023-04-18T14:42:56.177Z,16.67
2023-04-18T14:45:59.557Z,16.40
2023-04-18T14:49:01.761Z,16.46
2023-04-18T14:52:03.826Z,16.38
2023-04-18T14:55:07.494Z,16.46
2023-04-18T14:58:09.357Z,16.48
2023-04-18T15:01:11.344Z,16.47
2023-04-18T15:04:13.667Z,16.16
2023-04-18T15:07:16.355Z,16.19
2023-04-18T15:10:19.657Z,16.27
2023-04-18T15:13:21.559Z,16.06
2023-04-18T15:16:23.577Z,16.01
2023-04-18T15:19:25.643Z,15.88
2023-04-18T15:22:27.739Z,15.82
2023-04-18T15:25:30.570Z,15.69
2023-04-18T15:28:32.459Z,15.42
2023-04-18T15:31:36.670Z,15.41
2023-04-18T15:34:39.794Z,15.24
2023-04-18T15:37:41.778Z,15.29
2023-04-18T15:40:43.724Z,15.17
2023-04-18T15:43:45.979Z,15.32
2023-04-18T15:46:49.207Z,15.16
2023-04-18T15:49:51.543Z,15.21
2023-04-18T15:52:53.467Z,15.32
2023-04-18T15:55:55.564Z,15.17
2023-04-18T15:58:58.786Z,15.17
2023-04-18T16:02:01.077Z,14.93
2023-04-18T16:05:03.805Z,14.82
2023-04-18T16:08:06.341Z,14.76
2023-04-18T16:11:09.012Z,14.79
2023-04-18T16:14:10.889Z,14.84
2023-04-18T16:17:12.739Z,14.68
2023-04-18T16:20:54.436Z,14.71
2023-04-18T16:24:56.135Z,14.69
2023-04-18T16:28:58.100Z,14.47
2023-04-18T16:32:59.826Z,14.42
2023-04-18T16:36:21.681Z,14.60
2023-04-18T16:39:23.809Z,14.59
2023-04-18T16:42:25.727Z,14.59
2023-04-18T16:45:27.928Z,14.52
2023-04-18T16:48:30.135Z,14.65
2023-04-18T16:51:32.140Z,14.63
2023-04-18T16:54:34.230Z,14.43
2023-04-18T16:57:36.047Z,14.47
2023-04-18T17:00:38.623Z,14.52
2023-04-18T17:03:41.062Z,14.67
2023-04-18T17:06:43.792Z,14.70
2023-04-18T17:09:45.957Z,14.80
2023-04-18T17:12:49.410Z,14.74
2023-04-18T17:15:51.332Z,14.73
2023-04-18T17:18:53.310Z,14.57
2023-04-18T17:21:55.460Z,14.56
2023-04-18T17:24:57.773Z,14.44
2023-04-18T17:28:02.146Z,14.45
2023-04-18T17:31:04.880Z,14.54
2023-04-18T17:34:07.605Z,14.46
2023-04-18T17:37:11.110Z,14.47
2023-04-18T17:40:13.820Z,14.45
2023-04-18T17:43:16.360Z,14.35
2023-04-18T17:46:18.520Z,14.40
2023-04-18T17:49:21.195Z,14.16
2023-04-18T17:52:23.480Z,14.24
2023-04-18T17:55:26.648Z,14.11
2023-04-18T17:58:28.751Z,14.11
2023-04-18T18:01:31.396Z,14.30
2023-04-18T18:04:33.940Z,14.25
2023-04-18T18:07:38.304Z,14.09
2023-04-18T18:10:48.315Z,13.93
2023-04-18T18:13:54.541Z,13.79
2023-04-18T18:16:56.772Z,13.93
2023-04-18T18:19:59.041Z,14.08
2023-04-18T18:23:01.755Z,14.01
2023-04-18T18:26:04.297Z,13.90
2023-04-18T18:29:09.898Z,13.75
2023-04-18T18:32:12.308Z,13.62
2023-04-18T18:35:14.435Z,13.76
2023-04-18T18:38:16.593Z,13.74
2023-04-18T18:44:23.127Z,13.89
2023-04-18T18:47:25.658Z,13.96
2023-04-18T18:50:27.882Z,13.72
2023-04-18T18:53:29.768Z,13.71
2023-04-18T18:56:31.963Z,13.75
2023-04-18T18:59:34.410Z,13.77
2023-04-18T19:02:37.252Z,13.74
2023-04-18T19:05:39.885Z,13.74
2023-04-18T19:08:44.417Z,13.53
2023-04-18T19:11:46.722Z,13.65
2023-04-18T19:14:52.143Z,13.52
2023-04-18T19:17:54.314Z,13.61
2023-04-18T19:20:56.561Z,13.66
2023-04-18T19:24:01.791Z,13.50
2023-04-18T19:27:04.482Z,13.50
2023-04-18T19:30:07.525Z,13.46
2023-04-18T19:33:10.184Z,13.46
2023-04-18T19:36:12.424Z,13.33
2023-04-18T19:39:15.056Z,13.19
2023-04-18T19:42:18.190Z,13.17
2023-04-18T19:45:20.724Z,13.12
2023-04-18T19:48:24.017Z,13.10
2023-04-18T19:51:27.673Z,12.84
2023-04-18T19:54:33.385Z,12.89
2023-04-18T19:57:42.117Z,12.90
2023-04-18T20:00:44.196Z,12.86
2023-04-18T20:03:48.800Z,12.84
2023-04-18T20:06:51.181Z,12.70
2023-04-18T20:10:34.549Z,12.65
2023-04-18T20:14:36.301Z,12.63
2023-04-18T20:17:58.114Z,12.57
2023-04-18T20:21:00.407Z,12.51
2023-04-18T20:24:03.674Z,12.48
2023-04-18T20:27:05.805Z,12.37
2023-04-18T20:30:08.648Z,12.38
2023-04-18T20:33:10.825Z,12.31
2023-04-18T20:36:14.116Z,12.36
2023-04-18T20:39:17.254Z,12.31
2023-04-18T20:42:19.409Z,12.35
2023-04-18T20:45:24.003Z,12.27
2023-04-18T20:48:27.779Z,12.24
2023-04-18T20:51:31.830Z,12.22
2023-04-18T20:54:33.681Z,12.22
2023-04-18T20:57:36.088Z,12.12
2023-04-18T21:00:39.493Z,12.00
2023-04-18T21:03:41.842Z,12.14
2023-04-18T21:06:44.010Z,12.19
2023-04-18T21:09:45.990Z,12.21
2023-04-18T21:12:47.964Z,12.20
2023-04-18T21:15:52.269Z,12.30
2023-04-18T21:18:55.091Z,12.26
2023-04-18T21:21:57.429Z,12.18
2023-04-18T21:24:59.438Z,12.19
2023-04-18T21:28:21.300Z,12.13
2023-04-18T21:31:24.011Z,12.24
2023-04-18T21:34:25.884Z,12.23
2023-04-18T21:37:27.822Z,12.29
2023-04-18T21:40:31.162Z,12.34
2023-04-18T21:43:33.162Z,12.26
2023-04-18T21:46:35.042Z,12.21
2023-04-18T21:49:36.954Z,12.24
2023-04-18T21:52:39.068Z,12.22
2023-04-18T21:55:41.290Z,12.24
2023-04-18T21:58:43.339Z,12.21
2023-04-18T22:01:45.287Z,12.15
2023-04-18T22:04:48.158Z,12.14
2023-04-18T22:07:57.398Z,12.12
2023-04-18T22:11:00.448Z,12.09
2023-04-18T22:14:02.951Z,11.94
2023-04-18T22:17:04.912Z,11.95
2023-04-18T22:20:08.354Z,11.87
2023-04-18T22:23:11.292Z,11.75
2023-04-18T22:26:13.286Z,11.74
2023-04-18T22:29:15.198Z,11.67
2023-04-18T22:32:17.163Z,11.56
2023-04-18T22:35:19.194Z,11.58
2023-04-18T22:38:21.143Z,11.58
2023-04-18T22:41:23.088Z,11.48
2023-04-18T22:44:25.033Z,11.37
2023-04-18T22:47:27.087Z,11.41
2023-04-18T22:50:30.193Z,11.45
2023-04-18T22:53:32.592Z,11.28
2023-04-18T22:56:34.484Z,11.40
2023-04-18T22:59:36.543Z,11.33
2023-04-18T23:02:38.721Z,11.22
2023-04-18T23:05:41.374Z,11.33
2023-04-18T23:08:43.373Z,11.38
2023-04-18T23:11:45.946Z,11.32
2023-04-18T23:14:48.084Z,11.19
2023-04-18T23:17:53.731Z,11.28
2023-04-18T23:20:55.732Z,11.00
2023-04-18T23:23:58.125Z,11.04
2023-04-18T23:26:59.931Z,11.08
2023-04-18T23:30:01.898Z,11.08
2023-04-18T23:33:04.530Z,10.86
2023-04-18T23:36:07.145Z,10.95
2023-04-18T23:39:09.105Z,10.97
2023-04-18T23:42:11.225Z,10.98
2023-04-18T23:45:13.147Z,10.98
2023-04-18T23:48:15.000Z,10.94
2023-04-18T23:51:19.065Z,11.12
2023-04-18T23:54:20.983Z,11.18
2023-04-18T23:57:23.056Z,11.23
